createdAt,value
2018-09-20T00:01:40.020Z,101541.83
2018-09-20T00:04:18.473Z,101542.78
2018-09-20T00:06:55.529Z,101540.15
2018-09-20T00:09:32.276Z,101542.37
2018-09-20T00:12:10.461Z,101540.64
2018-09-20T00:14:46.418Z,101553.01
2018-09-20T00:17:25.681Z,101548.59
2018-09-20T00:20:01.907Z,101560.09
2018-09-20T00:22:39.209Z,101553.45
2018-09-20T00:25:15.858Z,101554.34
2018-09-20T00:27:53.542Z,101553.47
2018-09-20T00:30:32.970Z,101549.95
2018-09-20T00:33:10.424Z,101543.33
2018-09-20T00:35:47.616Z,101543.39
2018-09-20T00:38:16.900Z,101541.24
2018-09-20T00:40:46.172Z,101548.23
2018-09-20T00:43:15.852Z,101550.09
2018-09-20T00:45:45.154Z,101544.04
2018-09-20T00:48:14.480Z,101549.95
2018-09-20T00:50:43.806Z,101545.67
2018-09-20T00:53:17.761Z,101540.05
2018-09-20T00:55:47.060Z,101537.06
2018-09-20T00:58:16.359Z,101550.06
2018-09-20T01:00:45.648Z,101539.09
2018-09-20T01:03:15.005Z,101548.02
2018-09-20T01:05:44.345Z,101541.48
2018-09-20T01:08:13.661Z,101546.00
2018-09-20T01:10:42.987Z,101541.20
2018-09-20T01:13:12.305Z,101538.95
2018-09-20T01:15:41.609Z,101541.60
2018-09-20T01:18:10.909Z,101547.84
2018-09-20T01:20:40.203Z,101548.78
2018-09-20T01:23:09.509Z,101544.42
2018-09-20T01:25:38.834Z,101553.28
2018-09-20T01:28:08.134Z,101552.44
2018-09-20T01:30:37.441Z,101556.41
2018-09-20T01:33:06.838Z,101559.15
2018-09-20T01:35:36.188Z,101562.29
2018-09-20T01:38:06.316Z,101562.31
2018-09-20T01:40:35.638Z,101560.58
2018-09-20T01:43:06.185Z,101554.40
2018-09-20T01:45:35.590Z,101558.41
2018-09-20T01:48:04.915Z,101549.59
2018-09-20T01:50:34.246Z,101553.65
2018-09-20T01:53:03.633Z,101558.59
2018-09-20T01:55:33.148Z,101559.48
2018-09-20T01:58:02.702Z,101552.46
2018-09-20T02:00:32.367Z,101550.75
2018-09-20T02:03:01.984Z,101550.80
2018-09-20T02:05:31.509Z,101553.88
2018-09-20T02:08:01.055Z,101537.56
2018-09-20T02:10:30.654Z,101548.19
2018-09-20T02:13:00.274Z,101536.72
2018-09-20T02:15:29.768Z,101536.80
2018-09-20T02:17:59.398Z,101542.10
2018-09-20T02:20:28.989Z,101538.14
2018-09-20T02:22:58.568Z,101543.05
2018-09-20T02:25:28.159Z,101541.73
2018-09-20T02:27:57.557Z,101547.97
2018-09-20T02:30:27.091Z,101550.16
2018-09-20T02:32:56.622Z,101546.16
2018-09-20T02:35:26.181Z,101543.98
2018-09-20T02:37:55.773Z,101544.47
2018-09-20T02:40:25.295Z,101542.73
2018-09-20T02:42:54.722Z,101547.66
2018-09-20T02:45:24.321Z,101560.95
2018-09-20T02:47:53.793Z,101558.77
2018-09-20T02:50:23.373Z,101557.44
2018-09-20T02:52:52.680Z,101561.48
2018-09-20T02:55:22.005Z,101557.05
2018-09-20T02:57:51.338Z,101562.82
2018-09-20T03:00:20.667Z,101565.03
2018-09-20T03:02:49.983Z,101563.30
2018-09-20T03:05:19.299Z,101561.97
2018-09-20T03:07:48.622Z,101567.28
2018-09-20T03:10:17.938Z,101560.20
2018-09-20T03:12:47.257Z,101561.80
2018-09-20T03:15:16.590Z,101558.75
2018-09-20T03:17:45.902Z,101554.79
2018-09-20T03:20:15.750Z,101548.24
2018-09-20T03:22:45.090Z,101549.19
2018-09-20T03:25:14.440Z,101544.37
2018-09-20T03:27:43.771Z,101544.90
2018-09-20T03:30:13.195Z,101550.24
2018-09-20T03:32:42.446Z,101545.00
2018-09-20T03:35:11.789Z,101544.63
2018-09-20T03:37:41.078Z,101541.59
2018-09-20T03:40:10.413Z,101550.95
2018-09-20T03:42:39.756Z,101549.25
2018-09-20T03:45:09.061Z,101548.91
2018-09-20T03:47:38.406Z,101545.42
2018-09-20T03:50:08.084Z,101554.31
2018-09-20T03:52:37.433Z,101553.02
2018-09-20T03:55:07.374Z,101555.75
2018-09-20T03:57:36.858Z,101560.66
2018-09-20T04:00:06.469Z,101555.42
2018-09-20T04:02:36.084Z,101564.30
2018-09-20T04:05:06.599Z,101560.81
2018-09-20T04:07:36.199Z,101557.31
2018-09-20T04:10:05.716Z,101560.48
2018-09-20T04:12:35.407Z,101560.08
2018-09-20T04:15:06.173Z,101556.58
2018-09-20T04:17:35.588Z,101561.89
2018-09-20T04:20:07.591Z,101558.84
2018-09-20T04:22:37.258Z,101564.62
2018-09-20T04:25:07.066Z,101561.52
2018-09-20T04:27:36.629Z,101554.91
2018-09-20T04:30:06.574Z,101557.58
2018-09-20T04:32:36.158Z,101558.52
2018-09-20T04:35:06.415Z,101562.95
2018-09-20T04:37:36.004Z,101559.03
2018-09-20T04:40:06.527Z,101567.44
2018-09-20T04:42:36.021Z,101566.58
2018-09-20T04:45:07.379Z,101566.59
2018-09-20T04:47:37.737Z,101559.11
2018-09-20T04:50:07.730Z,101560.50
2018-09-20T04:52:37.385Z,101558.77
2018-09-20T04:55:07.956Z,101556.14
2018-09-20T04:57:37.741Z,101553.55
2018-09-20T05:00:07.319Z,101551.38
2018-09-20T05:02:36.694Z,101554.48
2018-09-20T05:05:06.566Z,101557.19
2018-09-20T05:07:36.028Z,101557.66
2018-09-20T05:10:06.298Z,101567.79
2018-09-20T05:12:35.941Z,101568.52
2018-09-20T05:15:06.439Z,101573.81
2018-09-20T05:17:35.978Z,101572.52
2018-09-20T05:20:06.499Z,101576.94
2018-09-20T05:22:35.846Z,101575.16
2018-09-20T05:25:06.574Z,101572.05
2018-09-20T05:27:52.553Z,101568.98
2018-09-20T05:30:22.029Z,101572.95
2018-09-20T05:32:51.733Z,101572.03
2018-09-20T05:35:21.159Z,101565.75
2018-09-20T05:37:50.813Z,101569.23
2018-09-20T05:40:20.294Z,101580.23
2018-09-20T05:42:49.761Z,101577.92
2018-09-20T05:45:19.268Z,101578.73
2018-09-20T05:47:48.742Z,101578.09
2018-09-20T05:50:18.099Z,101572.72
2018-09-20T05:52:47.510Z,101570.41
2018-09-20T05:55:16.975Z,101574.30
2018-09-20T05:57:46.431Z,101565.80
2018-09-20T06:00:16.376Z,101573.60
2018-09-20T06:02:45.779Z,101569.03
2018-09-20T06:05:15.198Z,101570.66
2018-09-20T06:07:44.621Z,101566.98
2018-09-20T06:10:14.074Z,101555.41
2018-09-20T06:12:43.533Z,101559.78
2018-09-20T06:15:12.965Z,101554.38
2018-09-20T06:17:42.354Z,101560.47
2018-09-20T06:20:13.079Z,101563.05
2018-09-20T06:22:43.189Z,101545.78
2018-09-20T06:25:12.733Z,101541.80
2018-09-20T06:27:42.334Z,101558.98
2018-09-20T06:30:11.813Z,101561.09
2018-09-20T06:32:41.236Z,101562.67
2018-09-20T06:35:10.745Z,101567.80
2018-09-20T06:37:40.202Z,101566.30
2018-09-20T06:40:09.682Z,101574.59
2018-09-20T06:42:39.125Z,101566.00
2018-09-20T06:45:09.297Z,101558.77
2018-09-20T06:47:38.723Z,101555.58
2018-09-20T06:50:08.323Z,101557.67
2018-09-20T06:52:37.868Z,101560.23
2018-09-20T06:55:07.314Z,101563.70
2018-09-20T06:57:37.469Z,101564.84
2018-09-20T07:00:07.995Z,101559.80
2018-09-20T07:02:37.441Z,101556.58
2018-09-20T07:05:06.828Z,101555.11
2018-09-20T07:07:36.245Z,101564.28
2018-09-20T07:10:06.573Z,101561.89
2018-09-20T07:12:35.997Z,101560.36
2018-09-20T07:15:06.679Z,101555.23
2018-09-20T07:17:36.143Z,101560.75
2018-09-20T07:20:06.825Z,101563.98
2018-09-20T07:22:36.242Z,101554.98
2018-09-20T07:25:05.774Z,101564.58
2018-09-20T07:27:35.224Z,101562.34
2018-09-20T07:30:04.653Z,101552.01
2018-09-20T07:32:34.166Z,101551.85
2018-09-20T07:35:03.572Z,101554.30
2018-09-20T07:37:33.114Z,101544.81
2018-09-20T07:40:02.550Z,101549.05
2018-09-20T07:42:32.894Z,101551.11
2018-09-20T07:45:02.348Z,101553.11
2018-09-20T07:47:31.954Z,101554.08
2018-09-20T07:50:01.392Z,101560.72
2018-09-20T07:52:31.697Z,101551.66
2018-09-20T07:55:01.103Z,101556.02
2018-09-20T07:57:31.174Z,101551.65
2018-09-20T08:00:02.125Z,101543.34
2018-09-20T08:02:31.678Z,101559.67
2018-09-20T08:05:01.069Z,101558.73
2018-09-20T08:07:30.739Z,101548.02
2018-09-20T08:10:00.185Z,101540.49
2018-09-20T08:12:29.809Z,101546.66
2018-09-20T08:14:59.849Z,101550.07
2018-09-20T08:17:29.279Z,101555.25
2018-09-20T08:19:58.758Z,101555.17
2018-09-20T08:22:29.147Z,101553.56
2018-09-20T08:24:58.603Z,101551.05
2018-09-20T08:27:28.081Z,101539.87
2018-09-20T08:29:57.500Z,101545.76
2018-09-20T08:32:27.003Z,101538.58
2018-09-20T08:34:56.527Z,101547.25
2018-09-20T08:37:25.966Z,101537.98
2018-09-20T08:39:55.351Z,101535.19
2018-09-20T08:42:24.886Z,101548.17
2018-09-20T08:44:54.334Z,101550.84
2018-09-20T08:47:23.816Z,101543.70
2018-09-20T08:49:53.276Z,101544.48
2018-09-20T08:52:22.685Z,101542.78
2018-09-20T08:54:53.499Z,101557.81
2018-09-20T08:57:23.915Z,101552.73
2018-09-20T08:59:53.332Z,101559.66
2018-09-20T09:02:23.548Z,101547.62
2018-09-20T09:04:52.917Z,101555.42
2018-09-20T09:07:22.390Z,101548.83
2018-09-20T09:09:51.749Z,101549.56
2018-09-20T09:12:21.157Z,101541.42
2018-09-20T09:14:50.503Z,101544.56
2018-09-20T09:17:19.959Z,101545.56
2018-09-20T09:19:49.338Z,101556.67
2018-09-20T09:22:18.674Z,101545.25
2018-09-20T09:24:48.086Z,101544.73
2018-09-20T09:27:17.452Z,101541.76
2018-09-20T09:29:46.825Z,101536.50
2018-09-20T09:32:16.213Z,101545.52
2018-09-20T09:34:45.570Z,101537.32
2018-09-20T09:37:14.987Z,101550.96
2018-09-20T09:39:44.359Z,101532.09
2018-09-20T09:42:13.821Z,101531.39
2018-09-20T09:44:43.290Z,101522.44
2018-09-20T09:47:12.681Z,101524.86
2018-09-20T09:49:42.059Z,101522.27
2018-09-20T09:52:11.470Z,101513.48
2018-09-20T09:54:40.858Z,101510.47
2018-09-20T09:57:10.259Z,101511.98
2018-09-20T09:59:39.690Z,101507.03
2018-09-20T10:02:09.665Z,101502.30
2018-09-20T10:04:39.055Z,101496.20
2018-09-20T10:07:08.447Z,101499.27
2018-09-20T10:09:37.897Z,101498.41
2018-09-20T10:12:07.209Z,101490.56
2018-09-20T10:14:36.598Z,101484.02
2018-09-20T10:17:06.245Z,101476.31
2018-09-20T10:19:35.664Z,101469.91
2018-09-20T10:22:06.310Z,101468.55
2018-09-20T10:24:35.715Z,101468.07
2018-09-20T10:27:06.319Z,101476.69
2018-09-20T10:29:35.653Z,101465.20
2018-09-20T10:32:06.298Z,101476.22
2018-09-20T10:34:36.235Z,101471.11
2018-09-20T10:37:06.133Z,101474.14
2018-09-20T10:39:35.510Z,101475.18
2018-09-20T10:42:06.192Z,101476.11
2018-09-20T10:44:35.580Z,101473.67
2018-09-20T10:47:07.200Z,101489.48
2018-09-20T10:49:36.573Z,101485.63
2018-09-20T10:52:06.464Z,101476.11
2018-09-20T10:54:37.634Z,101477.86
2018-09-20T10:57:06.986Z,101474.77
2018-09-20T10:59:36.378Z,101469.11
2018-09-20T11:02:06.121Z,101475.10
2018-09-20T11:04:35.508Z,101468.74
2018-09-20T11:07:06.216Z,101466.15
2018-09-20T11:09:35.608Z,101464.78
2018-09-20T11:12:06.627Z,101457.34
2018-09-20T11:14:36.070Z,101457.92
2018-09-20T11:17:06.514Z,101467.63
2018-09-20T11:19:36.009Z,101462.77
2018-09-20T11:22:06.087Z,101465.61
2018-09-20T11:24:35.565Z,101458.92
2018-09-20T11:27:06.227Z,101473.69
2018-09-20T11:29:35.638Z,101462.56
2018-09-20T11:32:06.256Z,101463.15
2018-09-20T11:34:35.618Z,101469.22
2018-09-20T11:37:05.063Z,101462.31
2018-09-20T11:39:34.474Z,101466.17
2018-09-20T11:42:03.793Z,101472.66
2018-09-20T11:44:33.155Z,101478.73
2018-09-20T11:47:02.569Z,101478.41
2018-09-20T11:49:32.152Z,101479.59
2018-09-20T11:52:01.514Z,101478.66
2018-09-20T11:54:30.950Z,101472.70
2018-09-20T11:57:00.339Z,101476.14
2018-09-20T11:59:29.713Z,101474.95
2018-09-20T12:02:05.817Z,101474.98
2018-09-20T12:04:35.243Z,101455.17
2018-09-20T12:07:04.653Z,101462.38
2018-09-20T12:09:34.394Z,101469.36
2018-09-20T12:12:03.822Z,101455.83
2018-09-20T12:14:33.599Z,101454.63
2018-09-20T12:17:02.976Z,101460.77
2018-09-20T12:19:32.414Z,101444.47
2018-09-20T12:22:01.800Z,101435.11
2018-09-20T12:24:31.170Z,101421.95
2018-09-20T12:27:00.527Z,101427.55
2018-09-20T12:29:29.887Z,101420.77
2018-09-20T12:31:59.340Z,101422.98
2018-09-20T12:34:28.649Z,101426.50
2018-09-20T12:36:57.960Z,101437.08
2018-09-20T12:39:27.279Z,101427.28
2018-09-20T12:41:56.640Z,101435.61
2018-09-20T12:44:25.996Z,101434.85
2018-09-20T12:46:55.338Z,101432.84
2018-09-20T12:49:24.709Z,101436.66
2018-09-20T12:51:55.516Z,101437.14
2018-09-20T12:54:24.853Z,101442.85
2018-09-20T12:56:54.258Z,101442.30
2018-09-20T12:59:23.664Z,101443.65
2018-09-20T13:01:53.478Z,101444.50
2018-09-20T13:04:22.982Z,101442.58
2018-09-20T13:06:52.473Z,101437.41
2018-09-20T13:09:21.819Z,101449.43
2018-09-20T13:11:51.206Z,101447.64
2018-09-20T13:14:20.645Z,101437.97
2018-09-20T13:16:50.061Z,101431.71
2018-09-20T13:19:19.432Z,101434.71
2018-09-20T13:21:48.771Z,101434.05
2018-09-20T13:24:18.106Z,101442.73
2018-09-20T13:26:47.434Z,101440.42
2018-09-20T13:29:16.797Z,101439.30
2018-09-20T13:31:46.224Z,101441.30
2018-09-20T13:34:15.558Z,101448.48
2018-09-20T13:36:44.892Z,101442.52
2018-09-20T13:39:14.281Z,101435.45
2018-09-20T13:41:43.680Z,101442.37
2018-09-20T13:44:13.096Z,101442.78
2018-09-20T13:46:42.673Z,101431.32
2018-09-20T13:49:12.314Z,101419.95
2018-09-20T13:51:41.628Z,101424.52
2018-09-20T13:54:10.949Z,101422.14
2018-09-20T13:56:40.343Z,101423.00
2018-09-20T13:59:09.936Z,101421.22
2018-09-20T14:01:39.453Z,101411.04
2018-09-20T14:04:09.071Z,101417.97
2018-09-20T14:06:39.430Z,101401.72
2018-09-20T14:09:13.551Z,101401.96
2018-09-20T14:11:43.056Z,101395.86
2018-09-20T14:14:12.432Z,101394.94
2018-09-20T14:16:41.833Z,101392.31
2018-09-20T14:19:11.219Z,101387.73
2018-09-20T14:21:40.540Z,101390.66
2018-09-20T14:24:09.875Z,101395.06
2018-09-20T14:26:39.217Z,101387.36
2018-09-20T14:29:08.570Z,101387.61
2018-09-20T14:31:37.925Z,101385.20
2018-09-20T14:34:07.903Z,101371.95
2018-09-20T14:36:37.208Z,101367.27
2018-09-20T14:39:09.664Z,101362.34
2018-09-20T14:41:39.244Z,101362.00
2018-09-20T14:44:08.585Z,101356.70
2018-09-20T14:46:37.883Z,101356.95
2018-09-20T14:49:07.709Z,101359.47
2018-09-20T14:51:37.031Z,101352.52
2018-09-20T14:54:06.464Z,101348.17
2018-09-20T14:56:35.806Z,101350.24
2018-09-20T14:59:06.234Z,101344.77
2018-09-20T15:01:35.567Z,101335.11
2018-09-20T15:04:06.161Z,101335.33
2018-09-20T15:06:35.498Z,101332.39
2018-09-20T15:09:08.695Z,101341.25
2018-09-20T15:11:38.018Z,101338.28
2018-09-20T15:14:07.338Z,101334.88
2018-09-20T15:16:36.683Z,101325.81
2018-09-20T15:19:06.886Z,101321.02
2018-09-20T15:21:44.337Z,101320.69
2018-09-20T15:24:13.892Z,101306.77
2018-09-20T15:26:43.537Z,101304.19
2018-09-20T15:29:14.438Z,101291.88
2018-09-20T15:31:43.869Z,101293.80
2018-09-20T15:34:13.985Z,101287.47
2018-09-20T15:36:43.391Z,101276.21
2018-09-20T15:39:14.405Z,101270.42
2018-09-20T15:41:43.756Z,101266.30
2018-09-20T15:44:13.078Z,101263.39
2018-09-20T15:46:46.395Z,101261.95
2018-09-20T15:49:16.758Z,101269.77
2018-09-20T15:51:47.142Z,101261.16
2018-09-20T15:54:19.993Z,101254.45
2018-09-20T15:56:49.875Z,101256.86
2018-09-20T15:59:19.863Z,101251.55
2018-09-20T16:01:49.677Z,101252.58
2018-09-20T16:04:19.687Z,101249.15
2018-09-20T16:06:51.481Z,101243.17
2018-09-20T16:09:21.184Z,101239.12
2018-09-20T16:14:48.092Z,101223.56
2018-09-20T16:17:17.614Z,101224.38
2018-09-20T16:19:47.054Z,101229.23
2018-09-20T16:22:16.325Z,101233.52
2018-09-20T16:24:45.597Z,101237.49
2018-09-20T16:27:14.889Z,101224.81
2018-09-20T16:30:10.544Z,101223.06
2018-09-20T16:33:02.169Z,101213.84
2018-09-20T16:36:04.933Z,101216.20
2018-09-20T16:38:50.866Z,101213.11
2018-09-20T16:41:31.177Z,101208.77
2018-09-20T16:44:00.439Z,101216.44
2018-09-20T16:46:29.730Z,101204.69
2018-09-20T16:48:58.993Z,101202.54
2018-09-20T16:51:28.339Z,101197.30
2018-09-20T16:53:57.611Z,101192.46
2018-09-20T16:56:26.926Z,101190.52
2018-09-20T16:58:56.345Z,101187.42
2018-09-20T17:01:25.663Z,101181.27
2018-09-20T17:03:55.089Z,101187.53
2018-09-20T17:06:24.357Z,101187.76
2018-09-20T17:08:53.644Z,101194.88
2018-09-20T17:11:22.953Z,101192.70
2018-09-20T17:13:52.211Z,101187.41
2018-09-20T17:16:21.512Z,101190.09
2018-09-20T17:18:50.780Z,101185.67
2018-09-20T17:21:20.075Z,101184.72
2018-09-20T17:23:49.334Z,101185.98
2018-09-20T17:26:18.614Z,101182.39
2018-09-20T17:28:47.888Z,101177.93
2018-09-20T17:31:17.209Z,101178.74
2018-09-20T17:33:46.540Z,101175.14
2018-09-20T17:36:16.170Z,101171.03
2018-09-20T17:38:46.443Z,101171.33
2018-09-20T17:41:21.781Z,101167.08
2018-09-20T17:43:59.839Z,101169.44
2018-09-20T17:46:29.115Z,101161.63
2018-09-20T17:48:58.439Z,101156.36
2018-09-20T17:51:28.198Z,101157.14
2018-09-20T17:53:58.267Z,101159.34
2018-09-20T17:56:28.342Z,101153.97
2018-09-20T17:58:58.374Z,101151.73
2018-09-20T18:01:28.023Z,101144.91
2018-09-20T18:03:57.321Z,101138.48
2018-09-20T18:06:26.632Z,101137.48
2018-09-20T18:08:55.922Z,101136.43
2018-09-20T18:11:25.197Z,101132.27
2018-09-20T18:13:54.496Z,101127.64
2018-09-20T18:16:31.249Z,101130.12
2018-09-20T18:19:00.523Z,101132.72
2018-09-20T18:21:29.811Z,101129.41
2018-09-20T18:23:59.119Z,101127.45
2018-09-20T18:26:28.397Z,101129.53
2018-09-20T18:28:57.801Z,101122.22
2018-09-20T18:31:27.065Z,101115.75
2018-09-20T18:33:56.406Z,101107.19
2018-09-20T18:36:25.683Z,101099.42
2018-09-20T18:38:55.005Z,101110.72
2018-09-20T18:41:24.322Z,101107.41
2018-09-20T18:43:53.661Z,101108.09
2018-09-20T18:46:22.966Z,101107.41
2018-09-20T18:48:52.274Z,101106.76
2018-09-20T18:51:22.348Z,101112.69
2018-09-20T18:53:51.665Z,101110.66
2018-09-20T18:56:21.029Z,101109.02
2018-09-20T18:58:50.361Z,101095.95
2018-09-20T19:01:19.697Z,101089.89
2018-09-20T19:03:49.035Z,101096.27
2018-09-20T19:06:18.388Z,101101.76
2018-09-20T19:08:47.698Z,101101.80
2018-09-20T19:11:17.080Z,101073.99
2018-09-20T19:13:46.434Z,101102.40
2018-09-20T19:16:15.746Z,101093.63
2018-09-20T19:18:45.217Z,101084.48
2018-09-20T19:21:14.591Z,101082.80
2018-09-20T19:23:43.958Z,101072.23
2018-09-20T19:26:13.859Z,101072.94
2018-09-20T19:28:43.512Z,101073.48
2018-09-20T19:31:13.377Z,101077.13
2018-09-20T19:33:46.346Z,101078.53
2018-09-20T19:36:20.583Z,101067.61
2018-09-20T19:38:51.523Z,101054.00
2018-09-20T19:41:21.342Z,101055.84
2018-09-20T19:43:50.916Z,101050.63
2018-09-20T19:46:21.353Z,101036.91
2018-09-20T19:48:50.863Z,101030.77
2018-09-20T19:51:21.904Z,101008.62
2018-09-20T19:53:51.425Z,101006.44
2018-09-20T19:56:20.807Z,101013.08
2018-09-20T19:58:51.736Z,101021.10
2018-09-20T20:01:21.264Z,101022.04
2018-09-20T20:06:32.861Z,100999.83
2018-09-20T20:09:02.353Z,100998.84
2018-09-20T20:11:32.174Z,100998.45
2018-09-20T20:14:01.621Z,101001.62
2018-09-20T20:16:31.287Z,101007.96
2018-09-20T20:19:00.785Z,101003.66
2018-09-20T20:21:30.297Z,101002.84
2018-09-20T20:23:59.804Z,100997.64
2018-09-20T20:26:29.309Z,101000.02
2018-09-20T20:28:58.809Z,100990.47
2018-09-20T20:31:28.417Z,100986.59
2018-09-20T20:33:57.921Z,100983.05
2018-09-20T20:36:27.914Z,100983.94
2018-09-20T20:38:57.631Z,100978.20
2018-09-20T20:41:27.169Z,100975.54
2018-09-20T20:43:57.164Z,100963.18
2018-09-20T20:46:26.774Z,100953.88
2018-09-20T20:48:56.284Z,100946.91
2018-09-20T20:51:25.897Z,100951.72
2018-09-20T20:53:55.578Z,100942.81
2018-09-20T20:56:26.122Z,100943.33
2018-09-20T20:58:55.666Z,100933.98
2018-09-20T21:01:25.436Z,100927.45
2018-09-20T21:03:54.946Z,100925.73
2018-09-20T21:06:24.540Z,100919.98
2018-09-20T21:08:54.104Z,100917.88
2018-09-20T21:11:23.570Z,100918.46
2018-09-20T21:13:53.262Z,100905.68
2018-09-20T21:16:22.786Z,100903.06
2018-09-20T21:18:55.650Z,100897.83
2018-09-20T21:21:25.365Z,100897.39
2018-09-20T21:23:54.790Z,100889.42
2018-09-20T21:26:24.301Z,100889.85
2018-09-20T21:31:21.161Z,100865.04
2018-09-20T21:33:50.479Z,100863.36
2018-09-20T21:36:19.773Z,100853.16
2018-09-20T21:38:49.113Z,100844.36
2018-09-20T21:41:18.504Z,100838.23
2018-09-20T21:43:47.866Z,100828.07
2018-09-20T21:46:17.213Z,100825.92
2018-09-20T21:48:46.568Z,100819.44
2018-09-20T21:51:15.924Z,100818.11
2018-09-20T21:53:45.193Z,100815.50
2018-09-20T21:56:14.515Z,100803.19
2018-09-20T21:58:43.900Z,100806.82
2018-09-20T22:01:13.736Z,100797.68
2018-09-20T22:03:43.072Z,100799.56
2018-09-20T22:06:12.382Z,100794.02
2018-09-20T22:08:41.689Z,100793.19
2018-09-20T22:11:10.986Z,100786.23
2018-09-20T22:13:40.289Z,100781.09
2018-09-20T22:16:09.631Z,100780.73
2018-09-20T22:18:38.989Z,100768.43
2018-09-20T22:21:08.312Z,100764.53
2018-09-20T22:23:37.649Z,100758.78
2018-09-20T22:26:07.040Z,100761.83
2018-09-20T22:28:36.344Z,100758.31
2018-09-20T22:31:06.654Z,100760.39
2018-09-20T22:33:35.964Z,100751.87
2018-09-20T22:36:05.944Z,100743.33
2018-09-20T22:38:35.234Z,100735.78
2018-09-20T22:46:06.917Z,100730.83
2018-09-20T22:48:36.216Z,100729.45
2018-09-20T22:51:08.937Z,100723.68
2018-09-20T22:53:38.289Z,100721.99
2018-09-20T22:56:07.665Z,100715.35
2018-09-20T22:58:37.033Z,100714.49
2018-09-20T23:01:06.372Z,100707.39
2018-09-20T23:03:35.710Z,100702.03
2018-09-20T23:06:13.003Z,100703.40
2018-09-20T23:08:49.715Z,100696.34
2018-09-20T23:11:28.143Z,100691.96
2018-09-20T23:14:05.905Z,100688.95
2018-09-20T23:16:43.353Z,100687.67
2018-09-20T23:19:20.837Z,100681.50
2018-09-20T23:21:58.102Z,100679.40
2018-09-20T23:24:36.217Z,100671.95
2018-09-20T23:27:14.020Z,100666.24
2018-09-20T23:29:53.257Z,100665.42
2018-09-20T23:32:30.402Z,100668.13
2018-09-20T23:35:09.453Z,100657.46
2018-09-20T23:37:47.381Z,100653.59
2018-09-20T23:40:25.132Z,100650.05
2018-09-20T23:43:01.995Z,100647.86
2018-09-20T23:45:39.589Z,100647.47
2018-09-20T23:48:18.725Z,100632.56
2018-09-20T23:50:57.640Z,100633.59
2018-09-20T23:53:35.150Z,100631.87
2018-09-20T23:56:12.637Z,100635.42
2018-09-20T23:58:48.906Z,100619.57
